WXM80 ListenWXM80 Stop

You find our weather info also at:

UK Metoffice

WeatherCloud

Weather Underground

Northeastern Weather Network

AWEKAS

Citizen Weather Observer Program (CWOP)

HAMweather, WeatherForYou, PWS Weather


Weather Underground History page Text

Daily Summary for February 16, 2019 Units:  Both    English   Metric
« Previous Day
Next Day »
Daily Weekly Monthly Yearly Custom
  Current: High: Low: Average:
Temperature: 44.3 °F /  6.8 °C 47.5 °F /  8.6 °C 34.8 °F /  1.6 °C 40.9 °F /  4.9 °C
Dew Point: 23.7 °F /  -4.6 °C 38.9 °F /  3.8 °C 23.0 °F /  -5 °C 27.1 °F /  -2.7 °C
Humidity: 44 % 72 % 43 % 58 %
Wind Speed: 3.4 mph /  5.5 km/h 9.2 mph /  14.8 km/h - 3.3 mph /  5.3 km/h
Wind Gust: 6.9 mph /  11.1 km/h 14.0 mph /  22.5 km/h - -
Wind:WSW - - WNW
Pressure: 29.82 in /  1009.7 hPa 29.85 in /  1010.7 hPa 29.67 in /  1004.6 hPa -
Precipitation: 0.00 in /  0 mm      
Historical Graphs
 
 
Tabular Data for February 16, 2019
Time Temperature Dew Point Pressure Wind Wind Speed Wind Gust Humidity Rainfall Rate (Hourly)
00:04 47.5 °F /  8.6 °C 38.9 °F /  3.8 °C 29.67 in /  1004.6 hPa WNW 5.0 mph /  8 km/h 13.8 mph /  22.2 km/h 72 % 0.00 in /  0 mm
00:09 47.3 °F /  8.5 °C 37.6 °F /  3.1 °C 29.67 in /  1004.6 hPa NNW 5.8 mph /  9.3 km/h 12.0 mph /  19.3 km/h 69 % 0.00 in /  0 mm
00:14 46.9 °F /  8.3 °C 36.1 °F /  2.3 °C 29.68 in /  1005 hPa WNW 8.3 mph /  13.4 km/h 12.7 mph /  20.4 km/h 66 % 0.00 in /  0 mm
00:19 46.7 °F /  8.2 °C 35.6 °F /  2 °C 29.68 in /  1005 hPa NW 6.5 mph /  10.5 km/h 10.4 mph /  16.7 km/h 65 % 0.00 in /  0 mm
00:24 46.4 °F /  8 °C 34.9 °F /  1.6 °C 29.68 in /  1005 hPa NW 4.5 mph /  7.2 km/h 11.5 mph /  18.5 km/h 64 % 0.00 in /  0 mm
00:29 46.2 °F /  7.9 °C 33.9 °F /  1.1 °C 29.68 in /  1005 hPa West 5.2 mph /  8.4 km/h 9.2 mph /  14.8 km/h 62 % 0.00 in /  0 mm
00:34 46.1 °F /  7.8 °C 34.2 °F /  1.2 °C 29.69 in /  1005.3 hPa WNW 2.3 mph /  3.7 km/h 7.0 mph /  11.3 km/h 63 % 0.00 in /  0 mm
00:39 46.1 °F /  7.8 °C 34.6 °F /  1.4 °C 29.69 in /  1005.3 hPa NW 3.2 mph /  5.1 km/h 4.6 mph /  7.4 km/h 64 % 0.00 in /  0 mm
00:44 45.9 °F /  7.7 °C 34.4 °F /  1.3 °C 29.69 in /  1005.3 hPa WNW 0.7 mph /  1.1 km/h 4.0 mph /  6.4 km/h 64 % 0.00 in /  0 mm
00:49 45.7 °F /  7.6 °C 34.6 °F /  1.4 °C 29.69 in /  1005.3 hPa WNW 3.7 mph /  6 km/h 6.9 mph /  11.1 km/h 65 % 0.00 in /  0 mm
00:54 45.5 °F /  7.5 °C 34.4 °F /  1.3 °C 29.70 in /  1005.6 hPa West 1.5 mph /  2.4 km/h 7.0 mph /  11.3 km/h 65 % 0.00 in /  0 mm
00:59 45.3 °F /  7.4 °C 34.2 °F /  1.2 °C 29.70 in /  1005.6 hPa NW 0.8 mph /  1.3 km/h 5.0 mph /  8 km/h 65 % 0.00 in /  0 mm
01:04 45.1 °F /  7.3 °C 34.4 °F /  1.3 °C 29.70 in /  1005.6 hPa WNW 3.8 mph /  6.1 km/h 5.8 mph /  9.3 km/h 66 % 0.00 in /  0 mm
01:09 44.9 °F /  7.2 °C 33.8 °F /  1 °C 29.70 in /  1005.6 hPa West 0.8 mph /  1.3 km/h 6.0 mph /  9.7 km/h 65 % 0.00 in /  0 mm
01:14 44.8 °F /  7.1 °C 33.7 °F /  0.9 °C 29.70 in /  1005.6 hPa WNW 1.2 mph /  1.9 km/h 4.6 mph /  7.4 km/h 65 % 0.00 in /  0 mm
01:19 44.6 °F /  7 °C 33.6 °F /  0.9 °C 29.70 in /  1005.6 hPa Calm   1.2 mph /  1.9 km/h 65 % 0.00 in /  0 mm
01:24 44.5 °F /  6.9 °C 33.5 °F /  0.8 °C 29.71 in /  1006 hPa WNW 2.8 mph /  4.5 km/h 5.8 mph /  9.3 km/h 65 % 0.00 in /  0 mm
01:29 44.3 °F /  6.8 °C 33.3 °F /  0.7 °C 29.71 in /  1006 hPa WNW 0.4 mph /  0.6 km/h 6.9 mph /  11.1 km/h 65 % 0.00 in /  0 mm
01:34 44.1 °F /  6.7 °C 33.1 °F /  0.6 °C 29.71 in /  1006 hPa WNW 2.6 mph /  4.2 km/h 5.8 mph /  9.3 km/h 65 % 0.00 in /  0 mm
01:39 43.8 °F /  6.6 °C 32.8 °F /  0.4 °C 29.71 in /  1006 hPa WNW 0.1 mph /  0.2 km/h 4.6 mph /  7.4 km/h 65 % 0.00 in /  0 mm
01:44 43.7 °F /  6.5 °C 32.7 °F /  0.4 °C 29.71 in /  1006 hPa West 2.8 mph /  4.5 km/h 5.8 mph /  9.3 km/h 65 % 0.00 in /  0 mm
01:49 43.5 °F /  6.4 °C 32.5 °F /  0.3 °C 29.71 in /  1006 hPa Calm   3.5 mph /  5.6 km/h 65 % 0.00 in /  0 mm
01:54 43.3 °F /  6.3 °C 32.3 °F /  0.2 °C 29.71 in /  1006 hPa NW 1.0 mph /  1.6 km/h 5.0 mph /  8 km/h 65 % 0.00 in /  0 mm
01:59 43.0 °F /  6.1 °C 32.0 °F /  0 °C 29.71 in /  1006 hPa West 4.0 mph /  6.4 km/h 5.8 mph /  9.3 km/h 65 % 0.00 in /  0 mm
02:04 42.8 °F /  6 °C 31.8 °F /  -0.1 °C 29.71 in /  1006 hPa WNW 4.1 mph /  6.6 km/h 9.0 mph /  14.5 km/h 65 % 0.00 in /  0 mm
02:09 42.6 °F /  5.9 °C 31.3 °F /  -0.4 °C 29.71 in /  1006 hPa WNW 4.4 mph /  7.1 km/h 6.9 mph /  11.1 km/h 64 % 0.00 in /  0 mm
02:14 42.3 °F /  5.7 °C 31.4 °F /  -0.3 °C 29.71 in /  1006 hPa WNW 4.5 mph /  7.2 km/h 8.1 mph /  13 km/h 65 % 0.00 in /  0 mm
02:19 42.1 °F /  5.6 °C 31.6 °F /  -0.2 °C 29.71 in /  1006 hPa WNW 4.7 mph /  7.6 km/h 8.1 mph /  13 km/h 66 % 0.00 in /  0 mm
02:24 41.9 °F /  5.5 °C 31.0 °F /  -0.6 °C 29.71 in /  1006 hPa NW 2.3 mph /  3.7 km/h 10.4 mph /  16.7 km/h 65 % 0.00 in /  0 mm
02:29 41.8 °F /  5.4 °C 30.9 °F /  -0.6 °C 29.72 in /  1006.3 hPa WNW 5.9 mph /  9.5 km/h 9.2 mph /  14.8 km/h 65 % 0.00 in /  0 mm
02:34 41.6 °F /  5.3 °C 31.1 °F /  -0.5 °C 29.72 in /  1006.3 hPa WNW 3.7 mph /  6 km/h 8.1 mph /  13 km/h 66 % 0.00 in /  0 mm
02:39 41.5 °F /  5.3 °C 31.0 °F /  -0.6 °C 29.72 in /  1006.3 hPa NW 5.1 mph /  8.2 km/h 8.0 mph /  12.9 km/h 66 % 0.00 in /  0 mm
02:44 41.3 °F /  5.2 °C 31.2 °F /  -0.4 °C 29.72 in /  1006.3 hPa WNW 3.3 mph /  5.3 km/h 6.0 mph /  9.7 km/h 67 % 0.00 in /  0 mm
02:49 41.1 °F /  5.1 °C 31.3 °F /  -0.4 °C 29.72 in /  1006.3 hPa WNW 0.9 mph /  1.4 km/h 4.6 mph /  7.4 km/h 68 % 0.00 in /  0 mm
02:54 40.9 °F /  4.9 °C 31.5 °F /  -0.3 °C 29.72 in /  1006.3 hPa WNW 3.8 mph /  6.1 km/h 7.0 mph /  11.3 km/h 69 % 0.00 in /  0 mm
02:59 40.7 °F /  4.8 °C 31.0 °F /  -0.6 °C 29.72 in /  1006.3 hPa WNW 1.4 mph /  2.3 km/h 6.9 mph /  11.1 km/h 68 % 0.00 in /  0 mm
03:04 40.5 °F /  4.7 °C 30.4 °F /  -0.9 °C 29.72 in /  1006.3 hPa NW 5.6 mph /  9 km/h 10.4 mph /  16.7 km/h 67 % 0.00 in /  0 mm
03:09 40.3 °F /  4.6 °C 29.5 °F /  -1.4 °C 29.72 in /  1006.3 hPa WNW 4.5 mph /  7.2 km/h 7.0 mph /  11.3 km/h 65 % 0.00 in /  0 mm
03:14 40.1 °F /  4.5 °C 28.9 °F /  -1.7 °C 29.73 in /  1006.7 hPa WNW 4.6 mph /  7.4 km/h 13.8 mph /  22.2 km/h 64 % 0.00 in /  0 mm
03:19 40.0 °F /  4.4 °C 28.8 °F /  -1.8 °C 29.73 in /  1006.7 hPa WNW 5.0 mph /  8 km/h 8.1 mph /  13 km/h 64 % 0.00 in /  0 mm
03:24 40.0 °F /  4.4 °C 28.4 °F /  -2 °C 29.73 in /  1006.7 hPa WNW 4.7 mph /  7.6 km/h 11.5 mph /  18.5 km/h 63 % 0.00 in /  0 mm
03:29 39.9 °F /  4.4 °C 27.5 °F /  -2.5 °C 29.73 in /  1006.7 hPa NW 5.4 mph /  8.7 km/h 11.0 mph /  17.7 km/h 61 % 0.00 in /  0 mm
03:34 39.8 °F /  4.3 °C 27.4 °F /  -2.6 °C 29.73 in /  1006.7 hPa NW 3.2 mph /  5.1 km/h 9.2 mph /  14.8 km/h 61 % 0.00 in /  0 mm
03:39 39.8 °F /  4.3 °C 26.6 °F /  -3 °C 29.73 in /  1006.7 hPa North 3.3 mph /  5.3 km/h 6.9 mph /  11.1 km/h 59 % 0.00 in /  0 mm
03:44 39.7 °F /  4.3 °C 26.9 °F /  -2.8 °C 29.74 in /  1007 hPa NW 6.0 mph /  9.7 km/h 9.2 mph /  14.8 km/h 60 % 0.00 in /  0 mm
03:49 39.7 °F /  4.3 °C 27.3 °F /  -2.6 °C 29.74 in /  1007 hPa NW 3.9 mph /  6.3 km/h 5.8 mph /  9.3 km/h 61 % 0.00 in /  0 mm
03:54 39.6 °F /  4.2 °C 27.6 °F /  -2.4 °C 29.74 in /  1007 hPa NW 5.0 mph /  8 km/h 10.4 mph /  16.7 km/h 62 % 0.00 in /  0 mm
03:59 39.5 °F /  4.2 °C 27.5 °F /  -2.5 °C 29.74 in /  1007 hPa NNW 4.1 mph /  6.6 km/h 10.0 mph /  16.1 km/h 62 % 0.00 in /  0 mm
04:04 39.4 °F /  4.1 °C 27.1 °F /  -2.7 °C 29.74 in /  1007 hPa NW 4.5 mph /  7.2 km/h 12.7 mph /  20.4 km/h 61 % 0.00 in /  0 mm
04:09 39.3 °F /  4.1 °C 26.6 °F /  -3 °C 29.74 in /  1007 hPa NW 3.7 mph /  6 km/h 8.1 mph /  13 km/h 60 % 0.00 in /  0 mm
04:14 39.2 °F /  4 °C 26.5 °F /  -3.1 °C 29.74 in /  1007 hPa WNW 4.7 mph /  7.6 km/h 8.1 mph /  13 km/h 60 % 0.00 in /  0 mm
04:19 39.2 °F /  4 °C 26.9 °F /  -2.8 °C 29.75 in /  1007.3 hPa NW 4.2 mph /  6.8 km/h 9.2 mph /  14.8 km/h 61 % 0.00 in /  0 mm
04:24 39.1 °F /  3.9 °C 27.2 °F /  -2.7 °C 29.74 in /  1007 hPa WNW 5.2 mph /  8.4 km/h 10.4 mph /  16.7 km/h 62 % 0.00 in /  0 mm
04:29 39.0 °F /  3.9 °C 27.1 °F /  -2.7 °C 29.75 in /  1007.3 hPa West 1.5 mph /  2.4 km/h 3.5 mph /  5.6 km/h 62 % 0.00 in /  0 mm
04:34 38.9 °F /  3.8 °C 27.0 °F /  -2.8 °C 29.75 in /  1007.3 hPa WNW 3.6 mph /  5.8 km/h 6.0 mph /  9.7 km/h 62 % 0.00 in /  0 mm
04:39 38.8 °F /  3.8 °C 26.5 °F /  -3.1 °C 29.75 in /  1007.3 hPa NW 5.9 mph /  9.5 km/h 6.0 mph /  9.7 km/h 61 % 0.00 in /  0 mm
04:44 38.7 °F /  3.7 °C 26.0 °F /  -3.3 °C 29.76 in /  1007.7 hPa WNW 6.3 mph /  10.1 km/h 9.2 mph /  14.8 km/h 60 % 0.00 in /  0 mm
04:49 38.6 °F /  3.7 °C 25.9 °F /  -3.4 °C 29.76 in /  1007.7 hPa NW 4.9 mph /  7.9 km/h 10.4 mph /  16.7 km/h 60 % 0.00 in /  0 mm
04:54 38.5 °F /  3.6 °C 25.8 °F /  -3.4 °C 29.76 in /  1007.7 hPa West 1.7 mph /  2.7 km/h 8.1 mph /  13 km/h 60 % 0.00 in /  0 mm
04:59 38.4 °F /  3.6 °C 25.7 °F /  -3.5 °C 29.77 in /  1008 hPa WNW 2.0 mph /  3.2 km/h 10.4 mph /  16.7 km/h 60 % 0.00 in /  0 mm
05:04 38.3 °F /  3.5 °C 26.0 °F /  -3.3 °C 29.77 in /  1008 hPa NW 3.7 mph /  6 km/h 9.2 mph /  14.8 km/h 61 % 0.00 in /  0 mm
05:09 38.3 °F /  3.5 °C 26.0 °F /  -3.3 °C 29.77 in /  1008 hPa NW 0.9 mph /  1.4 km/h 6.9 mph /  11.1 km/h 61 % 0.00 in /  0 mm
05:14 38.2 °F /  3.4 °C 26.3 °F /  -3.2 °C 29.77 in /  1008 hPa WNW 4.0 mph /  6.4 km/h 4.6 mph /  7.4 km/h 62 % 0.00 in /  0 mm
05:19 38.2 °F /  3.4 °C 25.9 °F /  -3.4 °C 29.77 in /  1008 hPa West 3.1 mph /  5 km/h 8.0 mph /  12.9 km/h 61 % 0.00 in /  0 mm
05:24 38.1 °F /  3.4 °C 26.2 °F /  -3.2 °C 29.77 in /  1008 hPa WNW 2.9 mph /  4.7 km/h 5.8 mph /  9.3 km/h 62 % 0.00 in /  0 mm
05:29 38.1 °F /  3.4 °C 26.2 °F /  -3.2 °C 29.77 in /  1008 hPa West 2.2 mph /  3.5 km/h 5.8 mph /  9.3 km/h 62 % 0.00 in /  0 mm
05:34 38.0 °F /  3.3 °C 26.1 °F /  -3.3 °C 29.78 in /  1008.4 hPa NW 3.6 mph /  5.8 km/h 6.0 mph /  9.7 km/h 62 % 0.00 in /  0 mm
05:39 37.9 °F /  3.3 °C 25.6 °F /  -3.6 °C 29.78 in /  1008.4 hPa NW 4.2 mph /  6.8 km/h 8.1 mph /  13 km/h 61 % 0.00 in /  0 mm
05:44 37.8 °F /  3.2 °C 25.1 °F /  -3.8 °C 29.78 in /  1008.4 hPa NNW 6.2 mph /  10 km/h 11.5 mph /  18.5 km/h 60 % 0.00 in /  0 mm
05:49 37.8 °F /  3.2 °C 25.5 °F /  -3.6 °C 29.77 in /  1008 hPa NW 4.6 mph /  7.4 km/h 11.5 mph /  18.5 km/h 61 % 0.00 in /  0 mm
05:54 37.7 °F /  3.2 °C 25.5 °F /  -3.6 °C 29.78 in /  1008.4 hPa NW 5.6 mph /  9 km/h 8.1 mph /  13 km/h 61 % 0.00 in /  0 mm
05:59 37.6 °F /  3.1 °C 25.7 °F /  -3.5 °C 29.77 in /  1008 hPa WNW 2.8 mph /  4.5 km/h 5.8 mph /  9.3 km/h 62 % 0.00 in /  0 mm
06:04 37.5 °F /  3.1 °C 26.0 °F /  -3.3 °C 29.78 in /  1008.4 hPa WNW 6.3 mph /  10.1 km/h 10.4 mph /  16.7 km/h 63 % 0.00 in /  0 mm
06:09 37.3 °F /  2.9 °C 25.1 °F /  -3.8 °C 29.78 in /  1008.4 hPa WNW 9.2 mph /  14.8 km/h 14.0 mph /  22.5 km/h 61 % 0.00 in /  0 mm
06:14 37.2 °F /  2.9 °C 25.4 °F /  -3.7 °C 29.78 in /  1008.4 hPa WNW 6.6 mph /  10.6 km/h 11.5 mph /  18.5 km/h 62 % 0.00 in /  0 mm
06:19 37.1 °F /  2.8 °C 25.3 °F /  -3.7 °C 29.78 in /  1008.4 hPa WNW 0.1 mph /  0.2 km/h 6.9 mph /  11.1 km/h 62 % 0.00 in /  0 mm
06:24 36.9 °F /  2.7 °C 25.1 °F /  -3.8 °C 29.78 in /  1008.4 hPa NW 4.7 mph /  7.6 km/h 6.9 mph /  11.1 km/h 62 % 0.00 in /  0 mm
06:29 36.8 °F /  2.7 °C 25.0 °F /  -3.9 °C 29.78 in /  1008.4 hPa NW 6.4 mph /  10.3 km/h 9.2 mph /  14.8 km/h 62 % 0.00 in /  0 mm
06:34 36.6 °F /  2.6 °C 24.4 °F /  -4.2 °C 29.79 in /  1008.7 hPa NW 2.5 mph /  4 km/h 6.9 mph /  11.1 km/h 61 % 0.00 in /  0 mm
06:39 36.5 °F /  2.5 °C 24.7 °F /  -4.1 °C 29.79 in /  1008.7 hPa NW 1.5 mph /  2.4 km/h 5.8 mph /  9.3 km/h 62 % 0.00 in /  0 mm
06:44 36.3 °F /  2.4 °C 24.5 °F /  -4.2 °C 29.79 in /  1008.7 hPa WNW 4.6 mph /  7.4 km/h 9.2 mph /  14.8 km/h 62 % 0.00 in /  0 mm
06:49 36.1 °F /  2.3 °C 24.3 °F /  -4.3 °C 29.79 in /  1008.7 hPa WNW 0.5 mph /  0.8 km/h 5.8 mph /  9.3 km/h 62 % 0.00 in /  0 mm
06:54 36.0 °F /  2.2 °C 24.2 °F /  -4.3 °C 29.80 in /  1009 hPa NW 5.3 mph /  8.5 km/h 5.8 mph /  9.3 km/h 62 % 0.00 in /  0 mm
06:59 35.9 °F /  2.2 °C 24.1 °F /  -4.4 °C 29.80 in /  1009 hPa Calm   6.9 mph /  11.1 km/h 62 % 0.00 in /  0 mm
07:04 35.7 °F /  2.1 °C 23.9 °F /  -4.5 °C 29.80 in /  1009 hPa WNW 2.9 mph /  4.7 km/h 7.0 mph /  11.3 km/h 62 % 0.00 in /  0 mm
07:09 35.6 °F /  2 °C 23.9 °F /  -4.5 °C 29.81 in /  1009.4 hPa NW 4.2 mph /  6.8 km/h 5.0 mph /  8 km/h 62 % 0.00 in /  0 mm
07:14 35.5 °F /  1.9 °C 23.8 °F /  -4.6 °C 29.81 in /  1009.4 hPa WNW 3.3 mph /  5.3 km/h 6.9 mph /  11.1 km/h 62 % 0.00 in /  0 mm
07:19 35.4 °F /  1.9 °C 23.7 °F /  -4.6 °C 29.81 in /  1009.4 hPa WNW 5.0 mph /  8 km/h 10.4 mph /  16.7 km/h 62 % 0.00 in /  0 mm
07:24 35.3 °F /  1.8 °C 23.6 °F /  -4.7 °C 29.82 in /  1009.7 hPa WNW 3.4 mph /  5.5 km/h 5.8 mph /  9.3 km/h 62 % 0.00 in /  0 mm
07:29 35.2 °F /  1.8 °C 23.1 °F /  -4.9 °C 29.82 in /  1009.7 hPa WNW 2.8 mph /  4.5 km/h 10.4 mph /  16.7 km/h 61 % 0.00 in /  0 mm
07:34 35.1 °F /  1.7 °C 23.0 °F /  -5 °C 29.82 in /  1009.7 hPa NW 5.3 mph /  8.5 km/h 8.1 mph /  13 km/h 61 % 0.00 in /  0 mm
07:39 35.1 °F /  1.7 °C 23.4 °F /  -4.8 °C 29.82 in /  1009.7 hPa WNW 2.1 mph /  3.4 km/h 5.8 mph /  9.3 km/h 62 % 0.00 in /  0 mm
07:44 35.0 °F /  1.7 °C 23.7 °F /  -4.6 °C 29.82 in /  1009.7 hPa WNW 5.7 mph /  9.2 km/h 8.0 mph /  12.9 km/h 63 % 0.00 in /  0 mm
07:49 35.0 °F /  1.7 °C 23.3 °F /  -4.8 °C 29.83 in /  1010 hPa West 4.8 mph /  7.7 km/h 6.9 mph /  11.1 km/h 62 % 0.00 in /  0 mm
07:54 34.9 °F /  1.6 °C 23.2 °F /  -4.9 °C 29.83 in /  1010 hPa WSW 5.7 mph /  9.2 km/h 10.4 mph /  16.7 km/h 62 % 0.00 in /  0 mm
07:59 34.8 °F /  1.6 °C 23.1 °F /  -4.9 °C 29.83 in /  1010 hPa WNW 3.1 mph /  5 km/h 11.5 mph /  18.5 km/h 62 % 0.00 in /  0 mm
08:04 34.8 °F /  1.6 °C 23.1 °F /  -4.9 °C 29.84 in /  1010.4 hPa NW 4.5 mph /  7.2 km/h 6.9 mph /  11.1 km/h 62 % 0.00 in /  0 mm
08:09 34.8 °F /  1.6 °C 23.5 °F /  -4.7 °C 29.84 in /  1010.4 hPa NW 2.6 mph /  4.2 km/h 7.0 mph /  11.3 km/h 63 % 0.00 in /  0 mm
08:14 34.9 °F /  1.6 °C 23.6 °F /  -4.7 °C 29.84 in /  1010.4 hPa NW 2.5 mph /  4 km/h 8.1 mph /  13 km/h 63 % 0.00 in /  0 mm
08:19 35.1 °F /  1.7 °C 23.8 °F /  -4.6 °C 29.84 in /  1010.4 hPa WNW 1.3 mph /  2.1 km/h 6.9 mph /  11.1 km/h 63 % 0.00 in /  0 mm
08:24 35.3 °F /  1.8 °C 23.6 °F /  -4.7 °C 29.84 in /  1010.4 hPa WNW 4.1 mph /  6.6 km/h 6.9 mph /  11.1 km/h 62 % 0.00 in /  0 mm
08:29 35.6 °F /  2 °C 23.9 °F /  -4.5 °C 29.84 in /  1010.4 hPa NW 1.4 mph /  2.3 km/h 8.1 mph /  13 km/h 62 % 0.00 in /  0 mm
08:34 35.9 °F /  2.2 °C 23.7 °F /  -4.6 °C 29.84 in /  1010.4 hPa NW 3.9 mph /  6.3 km/h 5.8 mph /  9.3 km/h 61 % 0.00 in /  0 mm
08:39 36.2 °F /  2.3 °C 24.0 °F /  -4.4 °C 29.85 in /  1010.7 hPa NW 4.9 mph /  7.9 km/h 8.1 mph /  13 km/h 61 % 0.00 in /  0 mm
08:44 36.5 °F /  2.5 °C 23.5 °F /  -4.7 °C 29.84 in /  1010.4 hPa WNW 1.6 mph /  2.6 km/h 8.1 mph /  13 km/h 59 % 0.00 in /  0 mm
08:49 36.8 °F /  2.7 °C 23.8 °F /  -4.6 °C 29.84 in /  1010.4 hPa NW 1.1 mph /  1.8 km/h 4.6 mph /  7.4 km/h 59 % 0.00 in /  0 mm
08:54 37.0 °F /  2.8 °C 24.0 °F /  -4.4 °C 29.84 in /  1010.4 hPa WNW 4.5 mph /  7.2 km/h 9.2 mph /  14.8 km/h 59 % 0.00 in /  0 mm
08:59 37.3 °F /  2.9 °C 23.9 °F /  -4.5 °C 29.84 in /  1010.4 hPa WNW 4.0 mph /  6.4 km/h 10.4 mph /  16.7 km/h 58 % 0.00 in /  0 mm
09:04 37.6 °F /  3.1 °C 24.1 °F /  -4.4 °C 29.85 in /  1010.7 hPa NW 3.1 mph /  5 km/h 6.0 mph /  9.7 km/h 58 % 0.00 in /  0 mm
09:09 38.0 °F /  3.3 °C 24.5 °F /  -4.2 °C 29.85 in /  1010.7 hPa NW 2.9 mph /  4.7 km/h 6.9 mph /  11.1 km/h 58 % 0.00 in /  0 mm
09:14 38.4 °F /  3.6 °C 24.5 °F /  -4.2 °C 29.85 in /  1010.7 hPa NW 4.8 mph /  7.7 km/h 9.2 mph /  14.8 km/h 57 % 0.00 in /  0 mm
09:19 38.8 °F /  3.8 °C 25.3 °F /  -3.7 °C 29.85 in /  1010.7 hPa NW 1.6 mph /  2.6 km/h 8.1 mph /  13 km/h 58 % 0.00 in /  0 mm
09:24 39.2 °F /  4 °C 24.8 °F /  -4 °C 29.85 in /  1010.7 hPa WNW 2.0 mph /  3.2 km/h 5.0 mph /  8 km/h 56 % 0.00 in /  0 mm
09:29 39.5 °F /  4.2 °C 24.7 °F /  -4.1 °C 29.84 in /  1010.4 hPa NNW 5.4 mph /  8.7 km/h 6.9 mph /  11.1 km/h 55 % 0.00 in /  0 mm
09:34 39.6 °F /  4.2 °C 24.7 °F /  -4.1 °C 29.84 in /  1010.4 hPa NW 4.5 mph /  7.2 km/h 5.8 mph /  9.3 km/h 55 % 0.00 in /  0 mm
09:39 39.6 °F /  4.2 °C 25.2 °F /  -3.8 °C 29.84 in /  1010.4 hPa NW 4.0 mph /  6.4 km/h 5.0 mph /  8 km/h 56 % 0.00 in /  0 mm
09:44 39.7 °F /  4.3 °C 24.4 °F /  -4.2 °C 29.84 in /  1010.4 hPa North 2.3 mph /  3.7 km/h 5.8 mph /  9.3 km/h 54 % 0.00 in /  0 mm
09:49 39.8 °F /  4.3 °C 24.9 °F /  -3.9 °C 29.84 in /  1010.4 hPa NW 0.4 mph /  0.6 km/h 4.6 mph /  7.4 km/h 55 % 0.00 in /  0 mm
09:54 40.0 °F /  4.4 °C 25.1 °F /  -3.8 °C 29.84 in /  1010.4 hPa NNW 0.5 mph /  0.8 km/h 3.5 mph /  5.6 km/h 55 % 0.00 in /  0 mm
09:59 40.4 °F /  4.7 °C 25.5 °F /  -3.6 °C 29.85 in /  1010.7 hPa NNW 1.8 mph /  2.9 km/h 4.6 mph /  7.4 km/h 55 % 0.00 in /  0 mm
10:04 40.7 °F /  4.8 °C 24.9 °F /  -3.9 °C 29.85 in /  1010.7 hPa NNW 2.1 mph /  3.4 km/h 5.8 mph /  9.3 km/h 53 % 0.00 in /  0 mm
10:09 40.6 °F /  4.8 °C 24.8 °F /  -4 °C 29.84 in /  1010.4 hPa NNW 2.5 mph /  4 km/h 4.6 mph /  7.4 km/h 53 % 0.00 in /  0 mm
10:14 40.7 °F /  4.8 °C 25.8 °F /  -3.4 °C 29.85 in /  1010.7 hPa NNW 2.5 mph /  4 km/h 2.3 mph /  3.7 km/h 55 % 0.00 in /  0 mm
10:19 40.9 °F /  4.9 °C 25.5 °F /  -3.6 °C 29.84 in /  1010.4 hPa NNW 2.1 mph /  3.4 km/h 4.6 mph /  7.4 km/h 54 % 0.00 in /  0 mm
10:24 41.1 °F /  5.1 °C 24.8 °F /  -4 °C 29.84 in /  1010.4 hPa NW 4.3 mph /  6.9 km/h 6.9 mph /  11.1 km/h 52 % 0.00 in /  0 mm
10:29 41.3 °F /  5.2 °C 25.0 °F /  -3.9 °C 29.84 in /  1010.4 hPa NNW 1.2 mph /  1.9 km/h 3.5 mph /  5.6 km/h 52 % 0.00 in /  0 mm
10:34 41.7 °F /  5.4 °C 25.4 °F /  -3.7 °C 29.85 in /  1010.7 hPa NW 2.3 mph /  3.7 km/h 4.6 mph /  7.4 km/h 52 % 0.00 in /  0 mm
10:39 41.9 °F /  5.5 °C 25.5 °F /  -3.6 °C 29.85 in /  1010.7 hPa North 2.4 mph /  3.9 km/h 5.0 mph /  8 km/h 52 % 0.00 in /  0 mm
10:44 42.5 °F /  5.8 °C 27.0 °F /  -2.8 °C 29.85 in /  1010.7 hPa NNW 0.5 mph /  0.8 km/h 3.5 mph /  5.6 km/h 54 % 0.00 in /  0 mm
10:49 43.1 °F /  6.2 °C 26.2 °F /  -3.2 °C 29.85 in /  1010.7 hPa NW 1.1 mph /  1.8 km/h 5.0 mph /  8 km/h 51 % 0.00 in /  0 mm
10:54 43.3 °F /  6.3 °C 26.4 °F /  -3.1 °C 29.85 in /  1010.7 hPa WNW 2.5 mph /  4 km/h 4.0 mph /  6.4 km/h 51 % 0.00 in /  0 mm
10:59 43.7 °F /  6.5 °C 27.7 °F /  -2.4 °C 29.85 in /  1010.7 hPa NNW 1.8 mph /  2.9 km/h 5.8 mph /  9.3 km/h 53 % 0.00 in /  0 mm
11:04 44.0 °F /  6.7 °C 27.0 °F /  -2.8 °C 29.85 in /  1010.7 hPa North 1.9 mph /  3.1 km/h 3.5 mph /  5.6 km/h 51 % 0.00 in /  0 mm
11:09 44.4 °F /  6.9 °C 26.4 °F /  -3.1 °C 29.85 in /  1010.7 hPa NNW 2.1 mph /  3.4 km/h 6.0 mph /  9.7 km/h 49 % 0.00 in /  0 mm
11:14 44.6 °F /  7 °C 27.6 °F /  -2.4 °C 29.85 in /  1010.7 hPa NNW 0.1 mph /  0.2 km/h 3.5 mph /  5.6 km/h 51 % 0.00 in /  0 mm
11:19 44.9 °F /  7.2 °C 25.9 °F /  -3.4 °C 29.85 in /  1010.7 hPa NW 1.1 mph /  1.8 km/h 3.5 mph /  5.6 km/h 47 % 0.00 in /  0 mm
11:24 45.0 °F /  7.2 °C 26.0 °F /  -3.3 °C 29.85 in /  1010.7 hPa NW 0.6 mph /  1 km/h 3.5 mph /  5.6 km/h 47 % 0.00 in /  0 mm
11:29 44.9 °F /  7.2 °C 26.9 °F /  -2.8 °C 29.85 in /  1010.7 hPa WNW 0.8 mph /  1.3 km/h 1.0 mph /  1.6 km/h 49 % 0.00 in /  0 mm
11:34 44.8 °F /  7.1 °C 26.3 °F /  -3.2 °C 29.85 in /  1010.7 hPa WNW 3.7 mph /  6 km/h 2.3 mph /  3.7 km/h 48 % 0.00 in /  0 mm
11:39 44.7 °F /  7.1 °C 26.7 °F /  -2.9 °C 29.84 in /  1010.4 hPa NNW 2.6 mph /  4.2 km/h 3.5 mph /  5.6 km/h 49 % 0.00 in /  0 mm
11:44 44.7 °F /  7.1 °C 26.2 °F /  -3.2 °C 29.84 in /  1010.4 hPa West 1.8 mph /  2.9 km/h 1.2 mph /  1.9 km/h 48 % 0.00 in /  0 mm
11:49 44.7 °F /  7.1 °C 25.7 °F /  -3.5 °C 29.84 in /  1010.4 hPa NW 3.8 mph /  6.1 km/h 6.9 mph /  11.1 km/h 47 % 0.00 in /  0 mm
11:54 44.6 °F /  7 °C 26.6 °F /  -3 °C 29.83 in /  1010 hPa NW 1.3 mph /  2.1 km/h 3.5 mph /  5.6 km/h 49 % 0.00 in /  0 mm
11:59 44.4 °F /  6.9 °C 25.4 °F /  -3.7 °C 29.83 in /  1010 hPa NW 5.1 mph /  8.2 km/h 6.0 mph /  9.7 km/h 47 % 0.00 in /  0 mm
12:04 44.1 °F /  6.7 °C 25.1 °F /  -3.8 °C 29.83 in /  1010 hPa NNW 6.2 mph /  10 km/h 7.0 mph /  11.3 km/h 47 % 0.00 in /  0 mm
12:09 43.7 °F /  6.5 °C 25.3 °F /  -3.7 °C 29.83 in /  1010 hPa NW 0.6 mph /  1 km/h 3.5 mph /  5.6 km/h 48 % 0.00 in /  0 mm
12:14 43.6 °F /  6.4 °C 25.7 °F /  -3.5 °C 29.83 in /  1010 hPa North 2.2 mph /  3.5 km/h 3.5 mph /  5.6 km/h 49 % 0.00 in /  0 mm
12:19 43.7 °F /  6.5 °C 27.2 °F /  -2.7 °C 29.83 in /  1010 hPa NW 1.2 mph /  1.9 km/h 4.0 mph /  6.4 km/h 52 % 0.00 in /  0 mm
12:24 43.8 °F /  6.6 °C 26.3 °F /  -3.2 °C 29.82 in /  1009.7 hPa NW 2.3 mph /  3.7 km/h 8.1 mph /  13 km/h 50 % 0.00 in /  0 mm
12:29 44.0 °F /  6.7 °C 26.5 °F /  -3.1 °C 29.82 in /  1009.7 hPa NW 5.7 mph /  9.2 km/h 6.9 mph /  11.1 km/h 50 % 0.00 in /  0 mm
12:34 44.0 °F /  6.7 °C 26.5 °F /  -3.1 °C 29.82 in /  1009.7 hPa WNW 2.6 mph /  4.2 km/h 8.1 mph /  13 km/h 50 % 0.00 in /  0 mm
12:39 44.2 °F /  6.8 °C 27.2 °F /  -2.7 °C 29.82 in /  1009.7 hPa NW 0.5 mph /  0.8 km/h 1.2 mph /  1.9 km/h 51 % 0.00 in /  0 mm
12:44 44.1 °F /  6.7 °C 26.1 °F /  -3.3 °C 29.82 in /  1009.7 hPa West 2.2 mph /  3.5 km/h 4.6 mph /  7.4 km/h 49 % 0.00 in /  0 mm
12:49 44.0 °F /  6.7 °C 25.5 °F /  -3.6 °C 29.82 in /  1009.7 hPa WNW 5.0 mph /  8 km/h 9.2 mph /  14.8 km/h 48 % 0.00 in /  0 mm
12:54 44.0 °F /  6.7 °C 26.0 °F /  -3.3 °C 29.82 in /  1009.7 hPa NNW 5.3 mph /  8.5 km/h 4.6 mph /  7.4 km/h 49 % 0.00 in /  0 mm
12:59 44.0 °F /  6.7 °C 26.5 °F /  -3.1 °C 29.82 in /  1009.7 hPa North 1.4 mph /  2.3 km/h 9.2 mph /  14.8 km/h 50 % 0.00 in /  0 mm
13:04 44.2 °F /  6.8 °C 27.2 °F /  -2.7 °C 29.82 in /  1009.7 hPa WNW 5.8 mph /  9.3 km/h 10.4 mph /  16.7 km/h 51 % 0.00 in /  0 mm
13:09 44.5 °F /  6.9 °C 26.5 °F /  -3.1 °C 29.82 in /  1009.7 hPa WNW 3.4 mph /  5.5 km/h 8.1 mph /  13 km/h 49 % 0.00 in /  0 mm
13:14 44.6 °F /  7 °C 26.1 °F /  -3.3 °C 29.82 in /  1009.7 hPa North 3.2 mph /  5.1 km/h 9.2 mph /  14.8 km/h 48 % 0.00 in /  0 mm
13:19 44.5 °F /  6.9 °C 25.5 °F /  -3.6 °C 29.82 in /  1009.7 hPa NNW 4.2 mph /  6.8 km/h 7.0 mph /  11.3 km/h 47 % 0.00 in /  0 mm
13:24 44.6 °F /  7 °C 25.6 °F /  -3.6 °C 29.82 in /  1009.7 hPa WNW 3.0 mph /  4.8 km/h 6.9 mph /  11.1 km/h 47 % 0.00 in /  0 mm
13:29 44.7 °F /  7.1 °C 25.7 °F /  -3.5 °C 29.82 in /  1009.7 hPa NNW 3.4 mph /  5.5 km/h 8.1 mph /  13 km/h 47 % 0.00 in /  0 mm
13:34 44.9 °F /  7.2 °C 25.3 °F /  -3.7 °C 29.82 in /  1009.7 hPa NNW 4.1 mph /  6.6 km/h 11.5 mph /  18.5 km/h 46 % 0.00 in /  0 mm
13:39 44.9 °F /  7.2 °C 25.3 °F /  -3.7 °C 29.82 in /  1009.7 hPa NW 7.2 mph /  11.6 km/h 11.5 mph /  18.5 km/h 46 % 0.00 in /  0 mm
13:44 44.7 °F /  7.1 °C 26.2 °F /  -3.2 °C 29.82 in /  1009.7 hPa WSW 3.0 mph /  4.8 km/h 10.4 mph /  16.7 km/h 48 % 0.00 in /  0 mm
13:49 44.6 °F /  7 °C 25.1 °F /  -3.8 °C 29.82 in /  1009.7 hPa WNW 1.8 mph /  2.9 km/h 5.8 mph /  9.3 km/h 46 % 0.00 in /  0 mm
13:54 44.6 °F /  7 °C 24.5 °F /  -4.2 °C 29.82 in /  1009.7 hPa WNW 4.5 mph /  7.2 km/h 9.2 mph /  14.8 km/h 45 % 0.00 in /  0 mm
13:59 44.5 °F /  6.9 °C 24.5 °F /  -4.2 °C 29.82 in /  1009.7 hPa West 6.4 mph /  10.3 km/h 11.5 mph /  18.5 km/h 45 % 0.00 in /  0 mm
14:04 44.5 °F /  6.9 °C 23.9 °F /  -4.5 °C 29.82 in /  1009.7 hPa West 5.5 mph /  8.9 km/h 11.5 mph /  18.5 km/h 44 % 0.00 in /  0 mm
14:09 44.4 °F /  6.9 °C 24.4 °F /  -4.2 °C 29.82 in /  1009.7 hPa WSW 3.9 mph /  6.3 km/h 11.5 mph /  18.5 km/h 45 % 0.00 in /  0 mm
14:14 44.4 °F /  6.9 °C 23.3 °F /  -4.8 °C 29.82 in /  1009.7 hPa SW 3.7 mph /  6 km/h 11.5 mph /  18.5 km/h 43 % 0.00 in /  0 mm
14:19 44.3 °F /  6.8 °C 23.7 °F /  -4.6 °C 29.82 in /  1009.7 hPa West 2.3 mph /  3.7 km/h 10.4 mph /  16.7 km/h 44 % 0.00 in /  0 mm
14:24 44.3 °F /  6.8 °C 23.7 °F /  -4.6 °C 29.82 in /  1009.7 hPa WSW 3.4 mph /  5.5 km/h 6.9 mph /  11.1 km/h 44 % 0.00 in /  0 mm
Crab Meadow Weather
Compliments of Weather Underground - 2.25 mb

Script developed by  Jim McMurry - jmcmurry@mwt.net Adapted for the template by  Wim van der Kuil - Leuven-Template.eu

Temperature: You can tell the temperature by counting the clicks a cricket makes in 15 seconds and adding 37!